Main page
METAR-TAF:

METAR-TAF

Airports :

Wanaham

Lifou, New Caledonia

latitude: 20-46S, longitude: 167-14E, elevation: 28 m

METAR: missing

Time: 11:22 (00:22 UTC)

Forecast

The report was made 7 hours and 22 minutes ago, at 17:00 UTC
Forecast valid from 07 at 18 UTC to 08 at 18 UTC
Wind 6 kt from the Southeast
Visibility 10 km or more
Few clouds at a height of 3000 ft
Temporary
from 08 at 00 UTC to 08 at 06 UTC
Scattered clouds at a height of 2000 ft, Towering cumulus.
Broken clouds at a height of 3000 ft
rain showers

TAF: NWWL 071700Z 0718/0818 13006KT 9999 FEW030 TEMPO 0800/0806 SHRA SCT020TCU BKN030

Weather observations and forecasts of more than 4000 airports (METAR and TAF reports).

The available stations are represented by yellow and red dots on the map.

Hover mouse over dot to see the name of the station.

Then click to see weather observations and forecasts.

To change the map : click on the green buttons with a black cross to zoom in, on the green button with a dash to zoom out, or on the green arrows for adjacent maps.


METAR-TAF: